createdAt,value
2023-02-02T00:00:51.317Z,9.20
2023-02-02T00:01:51.261Z,8.00
2023-02-02T00:02:51.271Z,6.00
2023-02-02T00:03:51.278Z,7.10
2023-02-02T00:04:51.204Z,6.20
2023-02-02T00:05:51.269Z,6.60
2023-02-02T00:06:51.185Z,9.00
2023-02-02T00:07:51.274Z,7.50
2023-02-02T00:08:51.177Z,13.30
2023-02-02T00:09:51.168Z,9.30
2023-02-02T00:10:51.169Z,8.60
2023-02-02T00:11:51.128Z,11.00
2023-02-02T00:12:51.112Z,9.30
2023-02-02T00:13:51.108Z,5.40
2023-02-02T00:14:51.107Z,8.00
2023-02-02T00:15:51.093Z,4.70
2023-02-02T00:16:51.062Z,10.70
2023-02-02T00:17:51.064Z,6.30
2023-02-02T00:18:51.036Z,8.40
2023-02-02T00:19:51.052Z,2.10
2023-02-02T00:20:51.008Z,5.90
2023-02-02T00:21:51.017Z,4.70
2023-02-02T00:22:50.997Z,7.50
2023-02-02T00:23:50.977Z,10.00
2023-02-02T00:24:51.015Z,9.80
2023-02-02T00:25:51.005Z,8.60
2023-02-02T00:26:50.997Z,6.10
2023-02-02T00:27:50.948Z,10.10
2023-02-02T00:28:50.896Z,8.00
2023-02-02T00:29:50.914Z,8.30
2023-02-02T00:30:50.972Z,7.60
2023-02-02T00:31:50.986Z,6.40
2023-02-02T00:32:50.865Z,6.20
2023-02-02T00:33:50.856Z,5.50
2023-02-02T00:34:50.821Z,3.60
2023-02-02T00:35:50.853Z,8.50
2023-02-02T00:36:50.825Z,5.00
2023-02-02T00:37:50.806Z,8.50
2023-02-02T00:38:50.772Z,8.20
2023-02-02T00:39:50.771Z,5.10
2023-02-02T00:40:50.728Z,6.50
2023-02-02T00:41:50.800Z,6.70
2023-02-02T00:42:50.717Z,5.30
2023-02-02T00:43:50.713Z,6.30
2023-02-02T00:44:50.691Z,9.90
2023-02-02T00:45:50.726Z,6.50
2023-02-02T00:46:50.682Z,6.10
2023-02-02T00:47:50.661Z,5.80
2023-02-02T00:48:50.635Z,4.90
2023-02-02T00:49:50.625Z,12.30
2023-02-02T00:50:50.614Z,11.60
2023-02-02T00:51:50.602Z,3.10
2023-02-02T00:52:50.576Z,6.60
2023-02-02T00:53:50.572Z,6.60
2023-02-02T00:54:50.565Z,12.00
2023-02-02T00:55:50.568Z,8.40
2023-02-02T00:56:50.568Z,9.20
2023-02-02T00:57:50.523Z,4.40
2023-02-02T00:58:50.516Z,10.80
2023-02-02T00:59:50.506Z,5.30
2023-02-02T01:00:50.514Z,8.00
2023-02-02T01:01:50.583Z,7.80
2023-02-02T01:02:50.465Z,3.90
2023-02-02T01:03:50.445Z,8.10
2023-02-02T01:04:50.448Z,7.00
2023-02-02T01:05:50.430Z,7.80
2023-02-02T01:06:50.431Z,10.10
2023-02-02T01:07:50.389Z,9.00
2023-02-02T01:08:50.366Z,10.40
2023-02-02T01:09:50.364Z,8.90
2023-02-02T01:10:50.370Z,8.40
2023-02-02T01:11:50.362Z,4.40
2023-02-02T01:12:50.333Z,10.30
2023-02-02T01:13:50.309Z,6.00
2023-02-02T01:14:50.315Z,6.90
2023-02-02T01:15:50.318Z,9.10
2023-02-02T01:16:50.349Z,8.00
2023-02-02T01:17:50.248Z,8.90
2023-02-02T01:18:50.246Z,8.40
2023-02-02T01:19:50.235Z,10.30
2023-02-02T01:20:50.219Z,7.70
2023-02-02T01:21:50.235Z,11.60
2023-02-02T01:22:50.199Z,7.40
2023-02-02T01:23:50.234Z,9.50
2023-02-02T01:24:50.198Z,9.30
2023-02-02T01:25:50.177Z,10.30
2023-02-02T01:26:50.177Z,11.00
2023-02-02T01:27:50.126Z,8.40
2023-02-02T01:28:50.117Z,12.80
2023-02-02T01:29:50.100Z,10.60
2023-02-02T01:30:50.097Z,7.90
2023-02-02T01:31:50.154Z,9.70
2023-02-02T01:32:50.069Z,9.50
2023-02-02T01:33:50.056Z,9.50
2023-02-02T01:34:50.073Z,8.40
2023-02-02T01:35:50.039Z,14.40
2023-02-02T01:36:50.008Z,11.60
2023-02-02T01:37:50.007Z,12.30
2023-02-02T01:38:49.984Z,14.00
2023-02-02T01:39:49.965Z,14.70
2023-02-02T01:40:49.947Z,13.00
2023-02-02T01:41:49.960Z,10.70
2023-02-02T01:42:49.934Z,11.20
2023-02-02T01:43:49.912Z,9.30
2023-02-02T01:44:49.909Z,15.60
2023-02-02T01:45:49.941Z,10.30
2023-02-02T01:46:49.879Z,8.30
2023-02-02T01:47:49.861Z,12.50
2023-02-02T01:48:49.857Z,10.70
2023-02-02T01:49:49.844Z,12.20
2023-02-02T01:50:49.837Z,19.00
2023-02-02T01:51:56.774Z,16.70
2023-02-02T01:52:49.871Z,12.60
2023-02-02T01:53:49.787Z,10.80
2023-02-02T01:54:49.774Z,12.40
2023-02-02T01:55:49.771Z,12.90
2023-02-02T01:56:49.788Z,11.20
2023-02-02T01:57:49.738Z,12.10
2023-02-02T01:58:49.750Z,12.80
2023-02-02T01:59:49.741Z,14.20
2023-02-02T02:00:49.721Z,10.90
2023-02-02T02:01:49.686Z,9.50
2023-02-02T02:02:49.685Z,13.90
2023-02-02T02:03:49.683Z,12.80
2023-02-02T02:04:49.673Z,13.60
2023-02-02T02:05:49.653Z,14.80
2023-02-02T02:06:49.633Z,13.80
2023-02-02T02:07:49.781Z,11.20
2023-02-02T02:08:49.611Z,14.10
2023-02-02T02:09:49.613Z,15.40
2023-02-02T02:10:49.566Z,15.20
2023-02-02T02:11:49.552Z,18.20
2023-02-02T02:12:49.567Z,14.30
2023-02-02T02:13:49.523Z,13.30
2023-02-02T02:14:49.515Z,15.20
2023-02-02T02:15:49.502Z,17.80
2023-02-02T02:16:49.610Z,14.30
2023-02-02T02:17:49.485Z,17.80
2023-02-02T02:18:49.478Z,18.00
2023-02-02T02:19:49.440Z,13.30
2023-02-02T02:20:49.463Z,19.20
2023-02-02T02:21:49.435Z,13.80
2023-02-02T02:22:49.439Z,16.40
2023-02-02T02:23:49.453Z,12.90
2023-02-02T02:24:49.408Z,13.20
2023-02-02T02:25:49.375Z,14.70
2023-02-02T02:26:49.415Z,16.50
2023-02-02T02:27:49.371Z,24.60
2023-02-02T02:28:49.374Z,12.00
2023-02-02T02:29:49.318Z,14.90
2023-02-02T02:30:49.453Z,19.40
2023-02-02T02:31:49.381Z,15.60
2023-02-02T02:32:49.303Z,13.90
2023-02-02T02:33:49.269Z,18.80
2023-02-02T02:34:49.261Z,19.90
2023-02-02T02:35:49.337Z,15.20
2023-02-02T02:36:49.225Z,13.20
2023-02-02T02:37:49.221Z,12.10
2023-02-02T02:38:49.199Z,13.60
2023-02-02T02:39:49.178Z,12.70
2023-02-02T02:40:49.168Z,17.80
2023-02-02T02:41:49.157Z,14.30
2023-02-02T02:42:49.142Z,19.20
2023-02-02T02:43:49.146Z,14.30
2023-02-02T02:44:49.120Z,14.20
2023-02-02T02:45:49.178Z,14.80
2023-02-02T02:46:49.094Z,12.30
2023-02-02T02:47:49.086Z,15.70
2023-02-02T02:48:49.084Z,13.10
2023-02-02T02:49:49.052Z,13.70
2023-02-02T02:50:49.036Z,22.90
2023-02-02T02:51:49.028Z,15.80
2023-02-02T02:52:49.025Z,14.50
2023-02-02T02:53:48.986Z,17.00
2023-02-02T02:54:49.007Z,17.30
2023-02-02T02:55:48.995Z,11.40
2023-02-02T02:56:48.978Z,17.60
2023-02-02T02:57:48.934Z,20.00
2023-02-02T02:58:48.961Z,12.20
2023-02-02T02:59:48.927Z,15.10
2023-02-02T03:00:48.913Z,12.40
2023-02-02T03:01:48.972Z,17.70
2023-02-02T03:02:48.915Z,21.90
2023-02-02T03:03:48.883Z,17.10
2023-02-02T03:04:48.873Z,16.00
2023-02-02T03:05:48.858Z,12.30
2023-02-02T03:06:48.868Z,21.10
2023-02-02T03:07:48.877Z,14.10
2023-02-02T03:08:48.819Z,18.10
2023-02-02T03:09:48.830Z,19.20
2023-02-02T03:10:48.774Z,16.50
2023-02-02T03:11:48.784Z,15.80
2023-02-02T03:12:48.763Z,19.30
2023-02-02T03:13:48.781Z,13.70
2023-02-02T03:14:48.728Z,15.00
2023-02-02T03:15:48.762Z,24.00
2023-02-02T03:16:48.693Z,19.20
2023-02-02T03:17:48.696Z,25.00
2023-02-02T03:18:48.714Z,21.90
2023-02-02T03:19:48.658Z,18.70
2023-02-02T03:20:48.666Z,17.70
2023-02-02T03:21:48.630Z,19.90
2023-02-02T03:22:48.637Z,24.10
2023-02-02T03:23:48.609Z,20.60
2023-02-02T03:24:48.596Z,22.30
2023-02-02T03:25:48.590Z,21.20
2023-02-02T03:26:48.758Z,27.40
2023-02-02T03:27:48.554Z,22.60
2023-02-02T03:28:48.560Z,17.00
2023-02-02T03:29:48.514Z,16.70
2023-02-02T03:30:48.596Z,24.50
2023-02-02T03:31:48.493Z,24.60
2023-02-02T03:32:48.480Z,25.70
2023-02-02T03:33:48.483Z,18.50
2023-02-02T03:34:48.461Z,18.80
2023-02-02T03:35:48.444Z,18.40
2023-02-02T03:36:48.480Z,18.40
2023-02-02T03:37:48.431Z,18.30
2023-02-02T03:38:48.424Z,21.30
2023-02-02T03:39:48.392Z,22.20
2023-02-02T03:40:48.397Z,22.60
2023-02-02T03:41:48.370Z,17.20
2023-02-02T03:42:48.374Z,26.00
2023-02-02T03:43:48.381Z,19.00
2023-02-02T03:44:48.331Z,19.70
2023-02-02T03:45:48.312Z,15.70
2023-02-02T03:46:48.313Z,26.60
2023-02-02T03:47:48.285Z,25.90
2023-02-02T03:48:48.292Z,25.10
2023-02-02T03:49:48.258Z,19.80
2023-02-02T03:50:48.255Z,24.90
2023-02-02T03:51:48.228Z,16.50
2023-02-02T03:52:48.222Z,18.20
2023-02-02T03:53:48.227Z,21.20
2023-02-02T03:54:48.211Z,21.50
2023-02-02T03:55:48.194Z,18.90
2023-02-02T03:56:48.202Z,21.50
2023-02-02T03:57:48.159Z,22.10
2023-02-02T03:58:48.149Z,20.60
2023-02-02T03:59:48.139Z,20.60
2023-02-02T04:00:48.128Z,19.00
2023-02-02T04:01:48.141Z,16.20
2023-02-02T04:02:48.134Z,13.80
2023-02-02T04:03:48.065Z,18.20
2023-02-02T04:04:48.088Z,13.30
2023-02-02T04:05:48.053Z,22.60
2023-02-02T04:06:48.047Z,20.90
2023-02-02T04:07:48.030Z,21.20
2023-02-02T04:08:48.006Z,14.60
2023-02-02T04:09:48.052Z,17.90
2023-02-02T04:10:47.981Z,18.90
2023-02-02T04:11:47.998Z,18.10
2023-02-02T04:12:47.967Z,15.90
2023-02-02T04:13:47.977Z,16.00
2023-02-02T04:14:47.949Z,12.40
2023-02-02T04:15:47.973Z,15.80
2023-02-02T04:16:47.938Z,17.60
2023-02-02T04:17:47.898Z,19.40
2023-02-02T04:18:47.884Z,16.40
2023-02-02T04:19:47.979Z,19.00
2023-02-02T04:20:47.848Z,16.90
2023-02-02T04:21:47.893Z,20.10
2023-02-02T04:27:32.717Z,13.40
2023-02-02T04:28:33.689Z,14.70
2023-02-02T04:29:33.678Z,16.60
2023-02-02T04:30:33.715Z,19.10
2023-02-02T04:31:33.663Z,17.90
2023-02-02T04:32:33.650Z,17.60
2023-02-02T04:33:33.697Z,19.30
2023-02-02T04:34:33.626Z,17.20
2023-02-02T04:35:33.613Z,15.70
2023-02-02T04:36:33.593Z,17.10
2023-02-02T04:37:33.601Z,22.40
2023-02-02T04:38:33.562Z,22.20
2023-02-02T04:39:33.549Z,20.70
2023-02-02T04:40:33.542Z,17.00
2023-02-02T04:41:33.531Z,22.70
2023-02-02T04:42:33.512Z,13.20
2023-02-02T04:43:33.506Z,15.00
2023-02-02T04:44:33.499Z,19.20
2023-02-02T04:45:33.561Z,18.50
2023-02-02T04:46:33.483Z,17.50
2023-02-02T04:47:33.526Z,16.20
2023-02-02T04:48:33.432Z,14.40
2023-02-02T04:49:33.424Z,24.30
2023-02-02T04:50:33.424Z,18.30
2023-02-02T04:51:33.441Z,18.10
2023-02-02T04:52:33.387Z,20.10
2023-02-02T04:53:33.403Z,20.40
2023-02-02T04:54:33.374Z,21.10
2023-02-02T04:55:33.349Z,17.00
2023-02-02T04:56:33.321Z,15.10
2023-02-02T04:57:33.314Z,19.60
2023-02-02T04:58:33.347Z,15.70
2023-02-02T04:59:33.284Z,18.20
2023-02-02T05:00:47.648Z,15.70
2023-02-02T05:06:42.513Z,18.40
2023-02-02T05:07:43.329Z,20.80
2023-02-02T05:08:43.339Z,13.30
2023-02-02T05:09:43.319Z,17.50
2023-02-02T05:10:43.283Z,18.90
2023-02-02T05:11:43.256Z,18.90
2023-02-02T05:12:43.260Z,19.90
2023-02-02T05:13:43.227Z,19.00
2023-02-02T05:14:43.237Z,17.20
2023-02-02T05:15:43.266Z,20.40
2023-02-02T05:16:43.218Z,17.30
2023-02-02T05:17:43.177Z,22.10
2023-02-02T05:18:43.165Z,20.90
2023-02-02T05:19:43.173Z,21.90
2023-02-02T05:20:43.164Z,22.60
2023-02-02T05:21:43.112Z,18.90
2023-02-02T05:22:43.104Z,24.70
2023-02-02T05:23:43.204Z,20.70
2023-02-02T05:24:43.083Z,13.70
2023-02-02T05:25:43.109Z,16.10
2023-02-02T05:26:43.106Z,18.30
2023-02-02T05:27:43.085Z,21.70
2023-02-02T05:28:43.024Z,19.20
2023-02-02T05:29:43.029Z,19.10
2023-02-02T05:30:43.040Z,19.50
2023-02-02T05:31:43.072Z,15.20
2023-02-02T05:32:42.981Z,21.40
2023-02-02T05:33:43.038Z,17.80
2023-02-02T05:34:42.967Z,17.70
2023-02-02T05:35:42.984Z,14.70
2023-02-02T05:36:42.942Z,20.10
2023-02-02T05:37:42.914Z,14.70
2023-02-02T05:38:42.935Z,21.30
2023-02-02T05:39:42.907Z,20.40
2023-02-02T05:40:42.918Z,18.40
2023-02-02T05:41:42.863Z,17.70
2023-02-02T05:42:42.860Z,19.70
2023-02-02T05:43:42.833Z,18.40
2023-02-02T05:44:42.820Z,18.10
2023-02-02T05:45:42.834Z,15.30
2023-02-02T05:46:42.787Z,18.20
2023-02-02T05:47:42.780Z,20.70
2023-02-02T05:48:42.763Z,21.20
2023-02-02T05:49:42.765Z,18.50
2023-02-02T05:50:42.747Z,17.30
2023-02-02T05:51:42.724Z,17.10
2023-02-02T05:52:42.731Z,18.50
2023-02-02T05:53:42.693Z,19.90
2023-02-02T05:54:42.727Z,21.70
2023-02-02T05:55:42.707Z,19.30
2023-02-02T05:56:42.653Z,18.40
2023-02-02T05:57:42.642Z,24.10
2023-02-02T05:58:42.631Z,19.40
2023-02-02T05:59:42.648Z,20.70
2023-02-02T06:00:42.624Z,15.20
2023-02-02T06:01:42.610Z,22.70
2023-02-02T06:02:42.646Z,19.40
2023-02-02T06:03:42.761Z,16.00
2023-02-02T06:04:42.554Z,17.00
2023-02-02T06:05:42.547Z,18.20
2023-02-02T06:06:42.559Z,16.90
2023-02-02T06:07:42.543Z,22.00
2023-02-02T06:08:42.495Z,16.80
2023-02-02T06:09:42.506Z,17.90
2023-02-02T06:10:42.465Z,21.50
2023-02-02T06:11:42.472Z,19.30
2023-02-02T06:12:42.467Z,21.70
2023-02-02T06:13:44.328Z,16.10
2023-02-02T06:14:42.416Z,20.10
2023-02-02T06:15:42.472Z,24.60
2023-02-02T06:16:42.406Z,18.10
2023-02-02T06:17:42.389Z,26.50
2023-02-02T06:18:42.377Z,31.20
2023-02-02T06:19:42.352Z,22.00
2023-02-02T06:20:42.327Z,25.20
2023-02-02T06:22:01.910Z,21.90
2023-02-02T06:22:42.305Z,21.80
2023-02-02T06:23:42.314Z,26.80
2023-02-02T06:24:42.287Z,24.90
2023-02-02T06:25:42.298Z,20.30
2023-02-02T06:26:42.377Z,21.20
2023-02-02T06:27:42.320Z,21.80
2023-02-02T06:28:42.309Z,30.60
2023-02-02T06:29:42.404Z,22.60
2023-02-02T06:30:44.134Z,30.20
2023-02-02T06:31:43.090Z,31.00
2023-02-02T06:32:42.194Z,27.70
2023-02-02T06:33:42.168Z,29.00
2023-02-02T06:34:42.143Z,22.50
2023-02-02T06:35:42.165Z,23.90
2023-02-02T06:36:42.143Z,35.00
2023-02-02T06:37:42.123Z,27.90
2023-02-02T06:38:42.090Z,23.90
2023-02-02T06:39:42.062Z,31.40
2023-02-02T06:40:42.099Z,29.20
2023-02-02T06:41:42.144Z,28.60
2023-02-02T06:42:42.025Z,24.10
2023-02-02T06:43:42.045Z,32.40
2023-02-02T06:44:41.991Z,24.20
2023-02-02T06:45:42.002Z,29.90
2023-02-02T06:46:42.079Z,23.70
2023-02-02T06:47:42.079Z,25.20
2023-02-02T06:48:41.978Z,30.90
2023-02-02T06:49:41.986Z,32.40
2023-02-02T06:50:42.042Z,34.10
2023-02-02T06:51:42.007Z,26.10
2023-02-02T06:52:41.955Z,28.70
2023-02-02T06:53:41.900Z,26.80
2023-02-02T06:54:41.900Z,28.80
2023-02-02T06:55:41.873Z,34.70
2023-02-02T06:56:41.904Z,29.90
2023-02-02T06:57:41.836Z,29.20
2023-02-02T06:58:41.863Z,28.50
2023-02-02T06:59:41.804Z,26.60
2023-02-02T07:00:41.826Z,28.50
2023-02-02T07:01:41.885Z,29.90
2023-02-02T07:02:41.789Z,32.20
2023-02-02T07:03:41.791Z,25.00
2023-02-02T07:04:41.846Z,27.90
2023-02-02T07:05:41.740Z,29.70
2023-02-02T07:06:41.756Z,26.30
2023-02-02T07:07:41.763Z,28.50
2023-02-02T07:08:41.717Z,33.40
2023-02-02T07:09:41.679Z,29.10
2023-02-02T07:11:13.894Z,29.20
2023-02-02T07:11:42.214Z,33.60
2023-02-02T07:12:41.691Z,28.30
2023-02-02T07:13:41.616Z,31.30
2023-02-02T07:14:41.616Z,30.70
2023-02-02T07:15:41.661Z,28.60
2023-02-02T07:16:41.619Z,33.90
2023-02-02T07:17:41.572Z,24.20
2023-02-02T07:18:41.549Z,24.90
2023-02-02T07:19:41.555Z,34.00
2023-02-02T07:20:41.573Z,30.30
2023-02-02T07:21:41.596Z,28.00
2023-02-02T07:22:41.504Z,27.40
2023-02-02T07:23:41.507Z,29.10
2023-02-02T07:24:41.481Z,25.20
2023-02-02T07:25:43.763Z,28.40
2023-02-02T07:26:41.525Z,32.00
2023-02-02T07:27:41.439Z,33.20
2023-02-02T07:28:41.425Z,31.00
2023-02-02T07:29:41.411Z,27.80
2023-02-02T07:30:41.471Z,33.50
2023-02-02T07:31:41.485Z,28.70
2023-02-02T07:32:41.362Z,28.10
2023-02-02T07:33:41.374Z,23.90
2023-02-02T07:34:41.347Z,33.30
2023-02-02T07:35:41.501Z,24.40
2023-02-02T07:36:41.396Z,30.30
2023-02-02T07:37:41.422Z,26.30
2023-02-02T07:38:41.315Z,27.90
2023-02-02T07:39:41.311Z,28.90
2023-02-02T07:40:41.280Z,22.10
2023-02-02T07:41:41.297Z,25.90
2023-02-02T07:42:41.239Z,25.40
2023-02-02T07:43:41.241Z,33.60
2023-02-02T07:44:41.285Z,31.60
2023-02-02T07:45:41.638Z,26.10
2023-02-02T07:46:41.220Z,34.90
2023-02-02T07:47:41.215Z,24.60
2023-02-02T07:48:41.193Z,26.10
2023-02-02T07:49:41.170Z,30.20
2023-02-02T07:50:41.168Z,31.90
2023-02-02T07:51:46.288Z,28.70
2023-02-02T07:52:41.174Z,29.20
2023-02-02T07:53:41.079Z,26.50
2023-02-02T07:54:41.093Z,30.20
2023-02-02T07:55:41.065Z,24.50
2023-02-02T07:56:41.091Z,38.00
2023-02-02T07:57:41.128Z,26.60
2023-02-02T07:58:41.168Z,30.60
2023-02-02T07:59:41.055Z,27.00
2023-02-02T08:00:41.062Z,31.80
2023-02-02T08:01:41.022Z,24.20
2023-02-02T08:02:41.104Z,25.80
2023-02-02T08:03:41.025Z,24.60
2023-02-02T08:04:41.039Z,22.50
2023-02-02T08:20:40.019Z,21.60
2023-02-02T08:21:22.303Z,22.60
2023-02-02T08:22:22.291Z,27.80
2023-02-02T08:23:28.356Z,23.30
2023-02-02T08:24:22.261Z,25.70
2023-02-02T08:25:22.314Z,29.90
2023-02-02T08:26:22.333Z,21.80
2023-02-02T08:27:50.514Z,32.40
2023-02-02T08:28:22.239Z,27.40
2023-02-02T08:29:23.441Z,24.90
2023-02-02T08:30:22.200Z,25.50
2023-02-02T08:31:22.254Z,20.70
2023-02-02T08:32:22.162Z,27.20
2023-02-02T08:33:22.162Z,12.60
2023-02-02T08:34:22.145Z,10.90
2023-02-02T08:35:22.407Z,11.60
2023-02-02T08:36:22.115Z,10.30
2023-02-02T08:37:22.091Z,11.40
2023-02-02T08:38:22.160Z,10.60
2023-02-02T08:39:22.110Z,8.50
2023-02-02T08:40:23.294Z,14.40
2023-02-02T08:41:22.074Z,10.60
2023-02-02T08:42:22.042Z,10.30
2023-02-02T08:43:22.052Z,13.20
2023-02-02T08:46:01.170Z,8.20
2023-02-02T08:46:08.372Z,8.00
2023-02-02T08:46:22.438Z,7.50
2023-02-02T08:47:21.983Z,6.90
2023-02-02T08:48:21.956Z,9.80
2023-02-02T08:49:21.958Z,11.80
2023-02-02T08:50:22.033Z,12.60
2023-02-02T08:51:21.902Z,7.00
2023-02-02T08:52:23.179Z,7.90
2023-02-02T08:53:21.875Z,7.00
2023-02-02T08:54:21.869Z,3.00
2023-02-02T08:55:21.916Z,0.60
2023-02-02T08:56:21.831Z,0.60
2023-02-02T08:57:21.826Z,0.50
2023-02-02T08:58:21.844Z,0.60
2023-02-02T08:59:21.782Z,0.70
2023-02-02T09:00:21.857Z,0.60
2023-02-02T09:01:21.807Z,0.60
2023-02-02T09:02:21.805Z,0.50
2023-02-02T09:03:21.786Z,0.60
2023-02-02T09:04:21.714Z,0.50
2023-02-02T09:05:21.730Z,0.50
2023-02-02T09:06:21.727Z,0.50
2023-02-02T09:07:21.690Z,0.60
2023-02-02T09:08:21.776Z,0.90
2023-02-02T09:09:21.692Z,0.60
2023-02-02T09:10:21.787Z,0.50
2023-02-02T09:11:21.698Z,1.30
2023-02-02T09:12:21.620Z,0.60
2023-02-02T09:13:23.299Z,0.70
2023-02-02T09:14:21.593Z,0.50
2023-02-02T09:15:21.831Z,0.60
2023-02-02T09:16:21.648Z,0.60
2023-02-02T09:17:21.577Z,0.90
2023-02-02T09:18:21.654Z,1.00
2023-02-02T09:19:21.540Z,0.60
2023-02-02T09:20:21.595Z,0.50
2023-02-02T09:21:21.515Z,0.70
2023-02-02T09:22:21.502Z,0.70
2023-02-02T09:23:21.500Z,0.60
2023-02-02T09:24:21.501Z,0.60
2023-02-02T09:25:21.469Z,0.70
2023-02-02T09:26:21.478Z,0.60
2023-02-02T09:27:21.417Z,0.50
2023-02-02T09:28:21.409Z,0.50
2023-02-02T09:29:21.473Z,0.50
2023-02-02T09:30:21.509Z,0.50
2023-02-02T09:31:21.475Z,0.50
2023-02-02T09:32:21.391Z,0.50
2023-02-02T09:33:21.393Z,1.20
2023-02-02T09:34:21.348Z,0.50
2023-02-02T09:35:21.299Z,0.50
2023-02-02T09:36:21.327Z,0.70
2023-02-02T09:37:21.320Z,0.50
2023-02-02T09:38:21.364Z,0.70
2023-02-02T09:39:21.261Z,0.60
2023-02-02T09:40:21.351Z,0.60
2023-02-02T09:41:21.306Z,1.60
2023-02-02T09:42:21.300Z,0.80
2023-02-02T09:43:21.201Z,0.60
2023-02-02T09:44:21.224Z,0.50
2023-02-02T09:45:21.184Z,0.50
2023-02-02T09:46:21.189Z,0.50
2023-02-02T09:47:21.178Z,0.50
2023-02-02T09:48:21.175Z,0.50
2023-02-02T09:49:21.153Z,0.50
2023-02-02T09:50:21.119Z,0.70
2023-02-02T09:51:21.119Z,0.60
2023-02-02T09:52:21.077Z,0.70
2023-02-02T09:53:21.072Z,0.90
2023-02-02T09:54:21.066Z,0.80
2023-02-02T09:55:21.071Z,0.50
2023-02-02T09:56:21.020Z,0.50
2023-02-02T09:57:21.055Z,0.70
2023-02-02T09:58:21.003Z,0.60
2023-02-02T09:59:23.465Z,0.60
2023-02-02T10:00:20.967Z,0.70
2023-02-02T10:01:21.015Z,0.90
2023-02-02T10:02:20.938Z,1.90
2023-02-02T10:03:20.973Z,0.60
2023-02-02T10:04:20.935Z,0.80
2023-02-02T10:05:20.929Z,0.50
2023-02-02T10:06:20.945Z,0.50
2023-02-02T10:07:20.902Z,0.50
2023-02-02T10:08:34.049Z,0.60
2023-02-02T10:09:20.870Z,0.60
2023-02-02T10:10:20.953Z,0.50
2023-02-02T10:11:20.879Z,0.70
2023-02-02T10:12:20.803Z,0.50
2023-02-02T10:13:20.808Z,0.50
2023-02-02T10:14:20.845Z,0.60
2023-02-02T10:15:20.850Z,0.80
2023-02-02T10:16:20.784Z,0.70
2023-02-02T10:17:20.781Z,0.70
2023-02-02T10:18:20.726Z,0.70
2023-02-02T10:19:20.716Z,1.60
2023-02-02T10:20:20.712Z,0.60
2023-02-02T10:21:20.693Z,0.60
2023-02-02T10:22:20.688Z,0.50
2023-02-02T10:23:20.711Z,0.60
2023-02-02T10:24:20.676Z,1.70
2023-02-02T10:25:20.659Z,0.70
2023-02-02T10:26:20.767Z,0.60
2023-02-02T10:27:20.621Z,0.60
2023-02-02T10:28:20.590Z,0.80
2023-02-02T10:29:20.618Z,0.50
2023-02-02T10:30:20.599Z,0.80
2023-02-02T10:31:20.673Z,0.80
2023-02-02T10:32:20.563Z,0.50
2023-02-02T10:33:20.547Z,0.90
2023-02-02T10:34:20.562Z,0.50
2023-02-02T10:35:20.518Z,4.50
2023-02-02T10:36:20.504Z,0.60
2023-02-02T10:37:20.479Z,0.80
2023-02-02T10:38:20.486Z,1.00
2023-02-02T10:39:20.472Z,2.10
2023-02-02T10:40:20.498Z,1.00
2023-02-02T10:41:20.418Z,0.50
2023-02-02T11:05:55.252Z,0.50
2023-02-02T11:06:37.199Z,0.50
2023-02-02T11:07:37.186Z,1.70
2023-02-02T11:08:37.222Z,0.80
2023-02-02T11:09:39.329Z,0.70
2023-02-02T11:10:37.128Z,0.50
2023-02-02T11:11:49.829Z,1.20
2023-02-02T11:12:37.115Z,0.90
2023-02-02T11:13:39.228Z,0.80
2023-02-02T11:14:44.789Z,0.60
2023-02-02T11:15:37.146Z,0.80
2023-02-02T11:16:43.083Z,0.60
2023-02-02T11:17:37.061Z,0.70
2023-02-02T11:18:37.031Z,0.60
2023-02-02T11:19:37.039Z,0.80
2023-02-02T11:20:37.015Z,0.50
2023-02-02T11:21:37.014Z,1.20
2023-02-02T11:22:36.983Z,0.80
2023-02-02T11:23:36.988Z,0.60
2023-02-02T11:24:36.971Z,0.60
2023-02-02T11:25:36.971Z,1.20
2023-02-02T11:26:36.965Z,0.60
2023-02-02T11:27:36.907Z,0.90
2023-02-02T11:28:36.900Z,0.60
2023-02-02T11:29:36.903Z,0.60
2023-02-02T11:30:36.894Z,0.60
2023-02-02T11:31:37.015Z,0.50
2023-02-02T11:32:36.849Z,0.90
2023-02-02T11:33:36.855Z,0.60
2023-02-02T11:34:36.814Z,1.00
2023-02-02T11:35:36.814Z,0.70
2023-02-02T11:36:36.820Z,0.60
2023-02-02T11:37:36.785Z,1.00
2023-02-02T11:38:36.775Z,0.60
2023-02-02T11:39:36.760Z,0.80
2023-02-02T11:40:36.747Z,0.60
2023-02-02T11:41:36.764Z,0.60
2023-02-02T11:42:36.731Z,0.50
2023-02-02T11:43:36.711Z,0.80
2023-02-02T11:44:36.689Z,0.60
2023-02-02T11:45:36.709Z,0.50
2023-02-02T11:46:36.767Z,0.50
2023-02-02T11:47:36.669Z,0.60
2023-02-02T11:48:36.659Z,0.60
2023-02-02T11:49:36.665Z,0.50
2023-02-02T11:50:36.600Z,0.60
2023-02-02T11:51:36.645Z,0.60
2023-02-02T11:52:36.587Z,0.50
2023-02-02T11:53:36.579Z,0.70
2023-02-02T11:54:36.588Z,0.70
2023-02-02T11:55:36.564Z,0.50
2023-02-02T11:56:36.562Z,0.50
2023-02-02T11:57:36.541Z,0.50
2023-02-02T11:58:36.504Z,0.60
2023-02-02T11:59:36.499Z,0.70
2023-02-02T12:00:36.480Z,0.60
2023-02-02T12:01:36.511Z,0.50
2023-02-02T12:02:36.448Z,0.50
2023-02-02T12:03:36.472Z,0.60
2023-02-02T12:04:36.486Z,1.00
2023-02-02T12:05:36.431Z,1.10
2023-02-02T12:06:36.412Z,0.60
2023-02-02T12:07:36.403Z,0.70
2023-02-02T12:08:36.371Z,1.30
2023-02-02T12:09:36.391Z,0.50
2023-02-02T12:10:36.799Z,1.10
2023-02-02T12:11:36.356Z,0.60
2023-02-02T12:12:36.320Z,1.60
2023-02-02T12:13:36.312Z,0.80
2023-02-02T12:14:36.363Z,0.90
2023-02-02T12:15:36.283Z,0.60
2023-02-02T12:16:36.342Z,0.60
2023-02-02T12:17:36.275Z,0.90
2023-02-02T12:18:36.266Z,1.10
2023-02-02T12:19:36.225Z,0.80
2023-02-02T12:20:36.246Z,0.80
2023-02-02T12:21:36.242Z,0.60
2023-02-02T12:22:36.237Z,1.20
2023-02-02T12:23:36.191Z,0.50
2023-02-02T12:24:36.169Z,1.20
2023-02-02T12:25:36.263Z,0.50
2023-02-02T12:26:36.204Z,0.60
2023-02-02T12:27:36.183Z,0.50
2023-02-02T12:28:36.121Z,0.60
2023-02-02T12:29:36.096Z,0.50
2023-02-02T12:30:36.154Z,0.50
2023-02-02T12:31:36.131Z,0.60
2023-02-02T12:32:36.088Z,0.60
2023-02-02T12:33:36.085Z,0.80
2023-02-02T12:34:36.034Z,0.60
2023-02-02T12:35:36.041Z,0.60
2023-02-02T12:36:36.020Z,0.50
2023-02-02T12:37:36.026Z,0.60
2023-02-02T12:38:35.972Z,0.60
2023-02-02T12:39:36.029Z,1.10
2023-02-02T12:40:35.988Z,0.60
2023-02-02T12:41:35.943Z,0.60
2023-02-02T12:42:35.926Z,0.60
2023-02-02T12:43:35.981Z,1.60
2023-02-02T12:44:35.900Z,0.50
2023-02-02T12:45:35.948Z,0.60
2023-02-02T12:46:35.867Z,0.70
2023-02-02T12:47:35.876Z,0.50
2023-02-02T12:48:35.859Z,0.50
2023-02-02T12:49:35.845Z,0.50
2023-02-02T12:50:35.845Z,0.50
2023-02-02T12:51:36.026Z,0.50
2023-02-02T12:52:35.799Z,0.50
2023-02-02T12:53:35.793Z,0.70
2023-02-02T12:54:44.921Z,0.70
2023-02-02T12:55:35.778Z,0.50
2023-02-02T12:56:35.742Z,0.50
2023-02-02T12:57:35.751Z,0.50
2023-02-02T12:58:35.739Z,0.60
2023-02-02T12:59:35.695Z,0.50
2023-02-02T13:00:35.718Z,0.50
2023-02-02T13:01:35.678Z,0.50
2023-02-02T13:02:35.782Z,0.60
2023-02-02T13:03:35.652Z,0.80
2023-02-02T13:04:35.651Z,0.50
2023-02-02T13:05:35.636Z,0.50
2023-02-02T13:06:35.638Z,0.50
2023-02-02T13:07:35.609Z,0.60
2023-02-02T13:08:35.613Z,0.50
2023-02-02T13:09:35.631Z,1.60
2023-02-02T13:10:35.611Z,2.50
2023-02-02T13:11:35.555Z,0.50
2023-02-02T13:12:35.591Z,0.50
2023-02-02T13:13:35.517Z,0.70
2023-02-02T13:14:35.660Z,0.90
2023-02-02T13:15:35.544Z,0.60
2023-02-02T13:16:35.572Z,0.70
2023-02-02T13:17:35.515Z,0.60
2023-02-02T13:18:35.447Z,0.80
2023-02-02T13:19:35.433Z,1.30
2023-02-02T13:20:35.454Z,1.00
2023-02-02T13:21:35.396Z,0.90
2023-02-02T13:22:35.427Z,0.60
2023-02-02T13:23:35.424Z,0.60
2023-02-02T13:24:35.427Z,0.80
2023-02-02T13:25:35.359Z,1.20
2023-02-02T13:26:35.624Z,0.70
2023-02-02T13:27:35.346Z,0.80
2023-02-02T13:28:35.351Z,1.00
2023-02-02T13:29:35.306Z,0.80
2023-02-02T13:30:35.449Z,1.20
2023-02-02T13:31:35.412Z,0.90
2023-02-02T13:32:35.289Z,2.40
2023-02-02T13:33:35.256Z,1.60
2023-02-02T13:34:36.211Z,0.80
2023-02-02T13:35:35.256Z,0.90
2023-02-02T13:36:35.287Z,1.60
2023-02-02T13:37:35.208Z,0.90
2023-02-02T13:38:35.211Z,1.80
2023-02-02T13:39:35.177Z,1.10
2023-02-02T13:40:35.156Z,0.80
2023-02-02T13:41:35.235Z,0.70
2023-02-02T13:42:37.999Z,1.60
2023-02-02T13:43:35.153Z,0.90
2023-02-02T13:44:35.124Z,2.00
2023-02-02T13:45:35.215Z,1.20
2023-02-02T13:46:35.081Z,0.80
2023-02-02T13:47:35.078Z,2.10
2023-02-02T13:48:35.084Z,1.70
2023-02-02T13:49:35.167Z,0.90
2023-02-02T13:50:35.086Z,2.00
2023-02-02T13:51:35.038Z,0.70
2023-02-02T13:52:35.075Z,0.60